sensor_id;sensor_type;location;lat;lon;timestamp;P1;durP1;ratioP1;P2;durP2;ratioP2
24305;SDS011;12423;48.768;8.850;2024-02-21T00:01:41;11.18;;;4.65;;
24305;SDS011;12423;48.768;8.850;2024-02-21T00:04:08;13.38;;;4.80;;
24305;SDS011;12423;48.768;8.850;2024-02-21T00:06:36;11.52;;;3.80;;
24305;SDS011;12423;48.768;8.850;2024-02-21T00:09:03;11.70;;;4.50;;
24305;SDS011;12423;48.768;8.850;2024-02-21T00:11:31;9.25;;;4.07;;
24305;SDS011;12423;48.768;8.850;2024-02-21T00:14:00;13.50;;;4.07;;
24305;SDS011;12423;48.768;8.850;2024-02-21T00:16:27;12.10;;;3.88;;
24305;SDS011;12423;48.768;8.850;2024-02-21T00:18:55;8.07;;;3.45;;
24305;SDS011;12423;48.768;8.850;2024-02-21T00:21:22;10.15;;;4.38;;
24305;SDS011;12423;48.768;8.850;2024-02-21T00:23:50;6.47;;;2.97;;
24305;SDS011;12423;48.768;8.850;2024-02-21T00:26:17;14.55;;;4.40;;
24305;SDS011;12423;48.768;8.850;2024-02-21T00:28:45;12.30;;;4.50;;
24305;SDS011;12423;48.768;8.850;2024-02-21T00:31:14;10.20;;;3.42;;
24305;SDS011;12423;48.768;8.850;2024-02-21T00:33:41;9.38;;;3.72;;
24305;SDS011;12423;48.768;8.850;2024-02-21T00:36:09;9.95;;;3.78;;
24305;SDS011;12423;48.768;8.850;2024-02-21T00:38:36;8.23;;;3.33;;
24305;SDS011;12423;48.768;8.850;2024-02-21T00:41:03;11.55;;;4.43;;
24305;SDS011;12423;48.768;8.850;2024-02-21T00:43:31;13.00;;;4.18;;
24305;SDS011;12423;48.768;8.850;2024-02-21T00:45:59;8.95;;;3.88;;
24305;SDS011;12423;48.768;8.850;2024-02-21T00:48:27;10.88;;;3.03;;
24305;SDS011;12423;48.768;8.850;2024-02-21T00:50:55;9.30;;;3.10;;
24305;SDS011;12423;48.768;8.850;2024-02-21T00:53:22;11.60;;;2.90;;
24305;SDS011;12423;48.768;8.850;2024-02-21T00:55:50;9.27;;;3.40;;
24305;SDS011;12423;48.768;8.850;2024-02-21T00:58:17;9.73;;;2.70;;
24305;SDS011;12423;48.768;8.850;2024-02-21T01:00:45;9.00;;;4.32;;
24305;SDS011;12423;48.768;8.850;2024-02-21T01:03:13;7.63;;;2.40;;
24305;SDS011;12423;48.768;8.850;2024-02-21T01:05:41;10.00;;;2.88;;
24305;SDS011;12423;48.768;8.850;2024-02-21T01:08:09;7.65;;;2.90;;
24305;SDS011;12423;48.768;8.850;2024-02-21T01:10:36;7.00;;;1.98;;
24305;SDS011;12423;48.768;8.850;2024-02-21T01:13:04;6.07;;;2.08;;
24305;SDS011;12423;48.768;8.850;2024-02-21T01:15:32;7.68;;;2.58;;
24305;SDS011;12423;48.768;8.850;2024-02-21T01:17:59;7.13;;;2.30;;
24305;SDS011;12423;48.768;8.850;2024-02-21T01:20:27;5.80;;;2.15;;
24305;SDS011;12423;48.768;8.850;2024-02-21T01:22:56;4.53;;;2.10;;
24305;SDS011;12423;48.768;8.850;2024-02-21T01:25:23;10.23;;;2.78;;
24305;SDS011;12423;48.768;8.850;2024-02-21T01:27:51;5.05;;;2.90;;
24305;SDS011;12423;48.768;8.850;2024-02-21T01:30:19;5.30;;;2.10;;
24305;SDS011;12423;48.768;8.850;2024-02-21T01:32:46;6.75;;;2.40;;
24305;SDS011;12423;48.768;8.850;2024-02-21T01:35:14;9.05;;;2.58;;
24305;SDS011;12423;48.768;8.850;2024-02-21T01:37:41;6.43;;;2.20;;
24305;SDS011;12423;48.768;8.850;2024-02-21T01:40:11;7.45;;;2.03;;
24305;SDS011;12423;48.768;8.850;2024-02-21T01:42:39;8.60;;;2.83;;
24305;SDS011;12423;48.768;8.850;2024-02-21T01:45:07;11.52;;;2.33;;
24305;SDS011;12423;48.768;8.850;2024-02-21T01:47:34;7.82;;;2.45;;
24305;SDS011;12423;48.768;8.850;2024-02-21T01:50:02;10.02;;;2.58;;
24305;SDS011;12423;48.768;8.850;2024-02-21T01:52:30;4.90;;;2.25;;
24305;SDS011;12423;48.768;8.850;2024-02-21T01:54:58;5.22;;;1.92;;
24305;SDS011;12423;48.768;8.850;2024-02-21T01:57:27;4.93;;;2.22;;
24305;SDS011;12423;48.768;8.850;2024-02-21T01:59:55;5.75;;;2.10;;
24305;SDS011;12423;48.768;8.850;2024-02-21T02:02:23;3.35;;;1.80;;
24305;SDS011;12423;48.768;8.850;2024-02-21T02:04:51;12.05;;;2.40;;
24305;SDS011;12423;48.768;8.850;2024-02-21T02:07:19;8.00;;;2.47;;
24305;SDS011;12423;48.768;8.850;2024-02-21T02:09:46;8.05;;;1.95;;
24305;SDS011;12423;48.768;8.850;2024-02-21T02:12:14;6.18;;;1.77;;
24305;SDS011;12423;48.768;8.850;2024-02-21T02:14:43;9.35;;;2.33;;
24305;SDS011;12423;48.768;8.850;2024-02-21T02:17:10;6.93;;;2.40;;
24305;SDS011;12423;48.768;8.850;2024-02-21T02:19:38;6.95;;;2.30;;
24305;SDS011;12423;48.768;8.850;2024-02-21T02:22:07;9.00;;;2.28;;
24305;SDS011;12423;48.768;8.850;2024-02-21T02:24:38;8.32;;;2.30;;
24305;SDS011;12423;48.768;8.850;2024-02-21T02:27:06;6.28;;;2.53;;
24305;SDS011;12423;48.768;8.850;2024-02-21T02:29:33;9.23;;;2.50;;
24305;SDS011;12423;48.768;8.850;2024-02-21T02:32:01;8.27;;;2.60;;
24305;SDS011;12423;48.768;8.850;2024-02-21T02:34:28;6.95;;;1.98;;
24305;SDS011;12423;48.768;8.850;2024-02-21T02:36:57;12.00;;;2.47;;
24305;SDS011;12423;48.768;8.850;2024-02-21T02:39:24;6.20;;;2.50;;
24305;SDS011;12423;48.768;8.850;2024-02-21T02:41:53;9.07;;;2.83;;
24305;SDS011;12423;48.768;8.850;2024-02-21T02:44:20;7.30;;;2.58;;
24305;SDS011;12423;48.768;8.850;2024-02-21T02:46:48;9.60;;;2.10;;
24305;SDS011;12423;48.768;8.850;2024-02-21T02:49:15;4.93;;;2.28;;
24305;SDS011;12423;48.768;8.850;2024-02-21T02:51:43;10.30;;;2.50;;
24305;SDS011;12423;48.768;8.850;2024-02-21T02:54:11;6.65;;;2.25;;
24305;SDS011;12423;48.768;8.850;2024-02-21T02:56:38;7.78;;;3.17;;
24305;SDS011;12423;48.768;8.850;2024-02-21T02:59:07;6.47;;;2.53;;
24305;SDS011;12423;48.768;8.850;2024-02-21T03:01:35;10.73;;;2.70;;
24305;SDS011;12423;48.768;8.850;2024-02-21T03:04:02;8.43;;;2.17;;
24305;SDS011;12423;48.768;8.850;2024-02-21T03:06:30;9.80;;;2.22;;
24305;SDS011;12423;48.768;8.850;2024-02-21T03:08:58;4.25;;;2.00;;
24305;SDS011;12423;48.768;8.850;2024-02-21T03:11:26;5.57;;;2.10;;
24305;SDS011;12423;48.768;8.850;2024-02-21T03:13:56;6.63;;;2.47;;
24305;SDS011;12423;48.768;8.850;2024-02-21T03:16:25;5.68;;;2.17;;
24305;SDS011;12423;48.768;8.850;2024-02-21T03:18:52;8.23;;;2.70;;
24305;SDS011;12423;48.768;8.850;2024-02-21T03:21:20;7.15;;;2.08;;
24305;SDS011;12423;48.768;8.850;2024-02-21T03:23:47;5.28;;;2.20;;
24305;SDS011;12423;48.768;8.850;2024-02-21T03:26:15;4.60;;;2.30;;
24305;SDS011;12423;48.768;8.850;2024-02-21T03:28:43;6.33;;;2.63;;
24305;SDS011;12423;48.768;8.850;2024-02-21T03:31:13;8.70;;;2.80;;
24305;SDS011;12423;48.768;8.850;2024-02-21T03:33:42;6.03;;;2.70;;
24305;SDS011;12423;48.768;8.850;2024-02-21T03:36:12;7.78;;;2.67;;
24305;SDS011;12423;48.768;8.850;2024-02-21T03:38:40;8.80;;;2.63;;
24305;SDS011;12423;48.768;8.850;2024-02-21T03:41:08;6.20;;;2.72;;
24305;SDS011;12423;48.768;8.850;2024-02-21T03:43:37;7.57;;;2.60;;
24305;SDS011;12423;48.768;8.850;2024-02-21T03:46:04;7.20;;;2.45;;
24305;SDS011;12423;48.768;8.850;2024-02-21T03:48:32;9.05;;;2.85;;
24305;SDS011;12423;48.768;8.850;2024-02-21T03:51:00;5.32;;;2.33;;
24305;SDS011;12423;48.768;8.850;2024-02-21T03:53:28;4.28;;;2.35;;
24305;SDS011;12423;48.768;8.850;2024-02-21T03:55:55;12.27;;;3.67;;
24305;SDS011;12423;48.768;8.850;2024-02-21T03:58:26;12.05;;;3.40;;
24305;SDS011;12423;48.768;8.850;2024-02-21T04:00:53;7.72;;;3.58;;
24305;SDS011;12423;48.768;8.850;2024-02-21T04:03:21;12.23;;;3.10;;
24305;SDS011;12423;48.768;8.850;2024-02-21T04:05:48;7.15;;;2.40;;
24305;SDS011;12423;48.768;8.850;2024-02-21T04:08:18;6.17;;;2.00;;
24305;SDS011;12423;48.768;8.850;2024-02-21T04:10:45;3.38;;;1.60;;
24305;SDS011;12423;48.768;8.850;2024-02-21T04:13:14;4.83;;;1.60;;
24305;SDS011;12423;48.768;8.850;2024-02-21T04:15:41;7.13;;;1.73;;
24305;SDS011;12423;48.768;8.850;2024-02-21T04:18:09;6.82;;;2.00;;
24305;SDS011;12423;48.768;8.850;2024-02-21T04:20:36;5.80;;;2.38;;
24305;SDS011;12423;48.768;8.850;2024-02-21T04:23:04;5.53;;;2.13;;
24305;SDS011;12423;48.768;8.850;2024-02-21T04:25:33;9.48;;;2.55;;
24305;SDS011;12423;48.768;8.850;2024-02-21T04:28:00;6.22;;;2.40;;
24305;SDS011;12423;48.768;8.850;2024-02-21T04:30:28;9.30;;;3.22;;
24305;SDS011;12423;48.768;8.850;2024-02-21T04:32:55;9.07;;;2.50;;
24305;SDS011;12423;48.768;8.850;2024-02-21T04:35:23;7.75;;;2.20;;
24305;SDS011;12423;48.768;8.850;2024-02-21T04:37:50;6.85;;;1.73;;
24305;SDS011;12423;48.768;8.850;2024-02-21T04:40:18;4.50;;;2.03;;
24305;SDS011;12423;48.768;8.850;2024-02-21T04:42:47;4.85;;;1.83;;
24305;SDS011;12423;48.768;8.850;2024-02-21T04:45:14;5.00;;;1.90;;
24305;SDS011;12423;48.768;8.850;2024-02-21T04:47:42;8.60;;;1.98;;
24305;SDS011;12423;48.768;8.850;2024-02-21T04:50:10;6.72;;;2.03;;
24305;SDS011;12423;48.768;8.850;2024-02-21T04:52:39;9.27;;;1.85;;
24305;SDS011;12423;48.768;8.850;2024-02-21T04:55:06;6.00;;;2.40;;
24305;SDS011;12423;48.768;8.850;2024-02-21T04:57:35;6.93;;;2.08;;
24305;SDS011;12423;48.768;8.850;2024-02-21T05:00:05;7.80;;;2.70;;
24305;SDS011;12423;48.768;8.850;2024-02-21T05:02:33;4.93;;;2.08;;
24305;SDS011;12423;48.768;8.850;2024-02-21T05:05:00;4.07;;;2.00;;
24305;SDS011;12423;48.768;8.850;2024-02-21T05:07:28;11.95;;;3.70;;
24305;SDS011;12423;48.768;8.850;2024-02-21T05:09:56;9.52;;;3.08;;
24305;SDS011;12423;48.768;8.850;2024-02-21T05:12:23;7.13;;;2.67;;
24305;SDS011;12423;48.768;8.850;2024-02-21T05:14:51;4.07;;;2.20;;
24305;SDS011;12423;48.768;8.850;2024-02-21T05:17:19;5.38;;;2.22;;
24305;SDS011;12423;48.768;8.850;2024-02-21T05:19:47;7.93;;;2.03;;
24305;SDS011;12423;48.768;8.850;2024-02-21T05:22:15;5.32;;;2.58;;
24305;SDS011;12423;48.768;8.850;2024-02-21T05:24:42;8.80;;;2.40;;
24305;SDS011;12423;48.768;8.850;2024-02-21T05:27:10;6.60;;;3.00;;
24305;SDS011;12423;48.768;8.850;2024-02-21T05:29:37;16.15;;;3.42;;
24305;SDS011;12423;48.768;8.850;2024-02-21T05:32:05;5.85;;;2.22;;
24305;SDS011;12423;48.768;8.850;2024-02-21T05:34:34;3.35;;;1.67;;
24305;SDS011;12423;48.768;8.850;2024-02-21T05:37:01;5.75;;;2.20;;
24305;SDS011;12423;48.768;8.850;2024-02-21T05:39:29;4.13;;;1.83;;
24305;SDS011;12423;48.768;8.850;2024-02-21T05:41:56;6.90;;;1.80;;
24305;SDS011;12423;48.768;8.850;2024-02-21T05:44:24;9.77;;;2.33;;
24305;SDS011;12423;48.768;8.850;2024-02-21T05:46:53;4.38;;;1.88;;
24305;SDS011;12423;48.768;8.850;2024-02-21T05:49:21;5.53;;;2.23;;
24305;SDS011;12423;48.768;8.850;2024-02-21T05:51:51;7.50;;;1.98;;
24305;SDS011;12423;48.768;8.850;2024-02-21T05:54:18;9.98;;;1.98;;
24305;SDS011;12423;48.768;8.850;2024-02-21T05:56:46;7.03;;;1.85;;
24305;SDS011;12423;48.768;8.850;2024-02-21T05:59:13;8.15;;;1.80;;
24305;SDS011;12423;48.768;8.850;2024-02-21T06:01:41;6.93;;;1.73;;
24305;SDS011;12423;48.768;8.850;2024-02-21T06:04:08;7.43;;;2.20;;
24305;SDS011;12423;48.768;8.850;2024-02-21T06:06:36;5.07;;;2.63;;
24305;SDS011;12423;48.768;8.850;2024-02-21T06:09:05;9.55;;;3.00;;
24305;SDS011;12423;48.768;8.850;2024-02-21T06:11:33;7.88;;;3.85;;
24305;SDS011;12423;48.768;8.850;2024-02-21T06:14:01;10.20;;;4.18;;
24305;SDS011;12423;48.768;8.850;2024-02-21T06:16:28;7.85;;;3.97;;
24305;SDS011;12423;48.768;8.850;2024-02-21T06:18:56;9.45;;;4.30;;
24305;SDS011;12423;48.768;8.850;2024-02-21T06:21:23;6.25;;;3.67;;
24305;SDS011;12423;48.768;8.850;2024-02-21T06:23:55;10.65;;;3.15;;
24305;SDS011;12423;48.768;8.850;2024-02-21T06:26:24;10.70;;;2.50;;
24305;SDS011;12423;48.768;8.850;2024-02-21T06:28:52;4.85;;;2.35;;
24305;SDS011;12423;48.768;8.850;2024-02-21T06:31:19;9.38;;;1.98;;
24305;SDS011;12423;48.768;8.850;2024-02-21T06:33:47;7.18;;;2.38;;
24305;SDS011;12423;48.768;8.850;2024-02-21T06:36:14;7.60;;;2.05;;
24305;SDS011;12423;48.768;8.850;2024-02-21T06:38:42;6.18;;;1.92;;
24305;SDS011;12423;48.768;8.850;2024-02-21T06:41:14;6.40;;;1.50;;
24305;SDS011;12423;48.768;8.850;2024-02-21T06:43:43;9.65;;;1.73;;
24305;SDS011;12423;48.768;8.850;2024-02-21T06:46:10;8.80;;;1.73;;
24305;SDS011;12423;48.768;8.850;2024-02-21T06:48:38;6.80;;;1.70;;
24305;SDS011;12423;48.768;8.850;2024-02-21T06:51:07;8.55;;;2.20;;
24305;SDS011;12423;48.768;8.850;2024-02-21T06:53:35;4.57;;;1.33;;
24305;SDS011;12423;48.768;8.850;2024-02-21T06:56:03;5.28;;;1.73;;
24305;SDS011;12423;48.768;8.850;2024-02-21T06:58:30;3.95;;;1.63;;
24305;SDS011;12423;48.768;8.850;2024-02-21T07:00:59;7.78;;;1.92;;
24305;SDS011;12423;48.768;8.850;2024-02-21T07:03:26;6.65;;;2.05;;
24305;SDS011;12423;48.768;8.850;2024-02-21T07:05:54;7.05;;;2.13;;
24305;SDS011;12423;48.768;8.850;2024-02-21T07:08:21;4.05;;;2.20;;
24305;SDS011;12423;48.768;8.850;2024-02-21T07:10:49;7.35;;;1.85;;
24305;SDS011;12423;48.768;8.850;2024-02-21T07:13:17;6.00;;;2.00;;
24305;SDS011;12423;48.768;8.850;2024-02-21T07:15:44;11.30;;;2.30;;
24305;SDS011;12423;48.768;8.850;2024-02-21T07:18:13;7.13;;;2.25;;
24305;SDS011;12423;48.768;8.850;2024-02-21T07:20:40;5.30;;;2.17;;
24305;SDS011;12423;48.768;8.850;2024-02-21T07:23:08;11.43;;;3.17;;
24305;SDS011;12423;48.768;8.850;2024-02-21T07:25:36;10.63;;;2.80;;
24305;SDS011;12423;48.768;8.850;2024-02-21T07:28:03;9.93;;;2.42;;
24305;SDS011;12423;48.768;8.850;2024-02-21T07:30:31;6.03;;;2.60;;
24305;SDS011;12423;48.768;8.850;2024-02-21T07:32:59;6.68;;;2.10;;
24305;SDS011;12423;48.768;8.850;2024-02-21T07:35:28;6.80;;;1.70;;
24305;SDS011;12423;48.768;8.850;2024-02-21T07:37:55;9.52;;;2.78;;
24305;SDS011;12423;48.768;8.850;2024-02-21T07:40:23;4.15;;;2.10;;
24305;SDS011;12423;48.768;8.850;2024-02-21T07:42:50;5.65;;;2.40;;
24305;SDS011;12423;48.768;8.850;2024-02-21T07:45:18;7.68;;;2.08;;
24305;SDS011;12423;48.768;8.850;2024-02-21T07:47:48;6.20;;;1.95;;
24305;SDS011;12423;48.768;8.850;2024-02-21T07:50:16;5.40;;;2.17;;
24305;SDS011;12423;48.768;8.850;2024-02-21T07:52:45;6.78;;;2.90;;
24305;SDS011;12423;48.768;8.850;2024-02-21T07:55:12;14.13;;;2.78;;
24305;SDS011;12423;48.768;8.850;2024-02-21T07:57:40;8.52;;;2.75;;
24305;SDS011;12423;48.768;8.850;2024-02-21T08:00:08;6.50;;;2.65;;
24305;SDS011;12423;48.768;8.850;2024-02-21T08:02:38;7.47;;;2.50;;
24305;SDS011;12423;48.768;8.850;2024-02-21T08:05:06;6.05;;;2.45;;
24305;SDS011;12423;48.768;8.850;2024-02-21T08:07:34;4.18;;;1.88;;
24305;SDS011;12423;48.768;8.850;2024-02-21T08:10:03;6.03;;;2.17;;
24305;SDS011;12423;48.768;8.850;2024-02-21T08:14:59;5.63;;;2.20;;
24305;SDS011;12423;48.768;8.850;2024-02-21T08:17:26;7.97;;;2.30;;
24305;SDS011;12423;48.768;8.850;2024-02-21T08:19:54;7.70;;;1.83;;
24305;SDS011;12423;48.768;8.850;2024-02-21T08:22:21;7.07;;;2.08;;
24305;SDS011;12423;48.768;8.850;2024-02-21T08:24:52;6.53;;;2.03;;
24305;SDS011;12423;48.768;8.850;2024-02-21T08:27:21;5.38;;;1.70;;
24305;SDS011;12423;48.768;8.850;2024-02-21T08:29:48;5.63;;;1.92;;
24305;SDS011;12423;48.768;8.850;2024-02-21T08:32:16;6.28;;;1.90;;
24305;SDS011;12423;48.768;8.850;2024-02-21T08:34:43;6.05;;;1.83;;
24305;SDS011;12423;48.768;8.850;2024-02-21T08:37:11;7.10;;;2.40;;
24305;SDS011;12423;48.768;8.850;2024-02-21T08:39:38;9.68;;;2.50;;
24305;SDS011;12423;48.768;8.850;2024-02-21T08:42:06;8.90;;;2.40;;
24305;SDS011;12423;48.768;8.850;2024-02-21T08:44:35;7.65;;;1.92;;
24305;SDS011;12423;48.768;8.850;2024-02-21T08:47:02;6.65;;;2.30;;
24305;SDS011;12423;48.768;8.850;2024-02-21T08:49:32;6.28;;;1.88;;
24305;SDS011;12423;48.768;8.850;2024-02-21T08:52:00;8.77;;;1.90;;
24305;SDS011;12423;48.768;8.850;2024-02-21T08:54:28;6.53;;;2.08;;
24305;SDS011;12423;48.768;8.850;2024-02-21T08:56:56;4.88;;;1.70;;
24305;SDS011;12423;48.768;8.850;2024-02-21T08:59:23;6.05;;;1.88;;
24305;SDS011;12423;48.768;8.850;2024-02-21T09:01:53;7.45;;;1.70;;
24305;SDS011;12423;48.768;8.850;2024-02-21T09:04:21;6.03;;;1.88;;
24305;SDS011;12423;48.768;8.850;2024-02-21T09:06:48;3.58;;;1.40;;
24305;SDS011;12423;48.768;8.850;2024-02-21T09:09:16;7.15;;;2.10;;
24305;SDS011;12423;48.768;8.850;2024-02-21T09:11:44;6.20;;;1.70;;
24305;SDS011;12423;48.768;8.850;2024-02-21T09:14:11;4.45;;;1.85;;
24305;SDS011;12423;48.768;8.850;2024-02-21T09:16:39;6.30;;;1.83;;
24305;SDS011;12423;48.768;8.850;2024-02-21T09:19:08;9.02;;;1.90;;
24305;SDS011;12423;48.768;8.850;2024-02-21T09:21:37;9.02;;;1.73;;
24305;SDS011;12423;48.768;8.850;2024-02-21T09:24:05;5.05;;;1.20;;
24305;SDS011;12423;48.768;8.850;2024-02-21T09:26:33;8.75;;;1.95;;
24305;SDS011;12423;48.768;8.850;2024-02-21T09:29:00;4.60;;;1.70;;
24305;SDS011;12423;48.768;8.850;2024-02-21T09:31:28;8.45;;;2.13;;
24305;SDS011;12423;48.768;8.850;2024-02-21T09:33:56;8.68;;;1.77;;
24305;SDS011;12423;48.768;8.850;2024-02-21T09:36:25;3.78;;;1.23;;
24305;SDS011;12423;48.768;8.850;2024-02-21T09:38:52;5.03;;;1.30;;
24305;SDS011;12423;48.768;8.850;2024-02-21T09:41:23;3.27;;;1.63;;
24305;SDS011;12423;48.768;8.850;2024-02-21T09:43:52;4.95;;;1.23;;
24305;SDS011;12423;48.768;8.850;2024-02-21T09:46:33;3.63;;;1.48;;
24305;SDS011;12423;48.768;8.850;2024-02-21T09:49:04;5.18;;;1.55;;
24305;SDS011;12423;48.768;8.850;2024-02-21T09:51:37;7.18;;;2.28;;
24305;SDS011;12423;48.768;8.850;2024-02-21T09:54:06;6.13;;;1.73;;
24305;SDS011;12423;48.768;8.850;2024-02-21T09:56:42;7.00;;;2.17;;
24305;SDS011;12423;48.768;8.850;2024-02-21T09:59:12;5.95;;;1.77;;
24305;SDS011;12423;48.768;8.850;2024-02-21T10:01:39;5.03;;;1.85;;
24305;SDS011;12423;48.768;8.850;2024-02-21T10:04:07;5.03;;;1.52;;
24305;SDS011;12423;48.768;8.850;2024-02-21T10:06:34;3.78;;;1.33;;
24305;SDS011;12423;48.768;8.850;2024-02-21T10:09:04;5.95;;;1.80;;
24305;SDS011;12423;48.768;8.850;2024-02-21T10:11:32;8.82;;;1.45;;
24305;SDS011;12423;48.768;8.850;2024-02-21T10:14:04;4.30;;;1.30;;
24305;SDS011;12423;48.768;8.850;2024-02-21T10:16:32;7.30;;;1.35;;
24305;SDS011;12423;48.768;8.850;2024-02-21T10:19:00;2.88;;;1.23;;
24305;SDS011;12423;48.768;8.850;2024-02-21T10:21:30;3.20;;;1.38;;
24305;SDS011;12423;48.768;8.850;2024-02-21T10:23:58;3.00;;;1.20;;
24305;SDS011;12423;48.768;8.850;2024-02-21T10:26:26;5.07;;;1.20;;
24305;SDS011;12423;48.768;8.850;2024-02-21T10:28:54;6.30;;;1.48;;
24305;SDS011;12423;48.768;8.850;2024-02-21T10:31:22;6.70;;;1.30;;
24305;SDS011;12423;48.768;8.850;2024-02-21T10:33:54;4.47;;;1.23;;
24305;SDS011;12423;48.768;8.850;2024-02-21T10:36:22;6.03;;;1.45;;
24305;SDS011;12423;48.768;8.850;2024-02-21T10:38:51;4.00;;;1.23;;
24305;SDS011;12423;48.768;8.850;2024-02-21T10:41:19;4.90;;;1.13;;
24305;SDS011;12423;48.768;8.850;2024-02-21T10:43:49;4.10;;;1.00;;
24305;SDS011;12423;48.768;8.850;2024-02-21T10:46:18;5.53;;;1.80;;
24305;SDS011;12423;48.768;8.850;2024-02-21T10:48:46;5.13;;;1.10;;
24305;SDS011;12423;48.768;8.850;2024-02-21T10:51:15;4.67;;;1.30;;
24305;SDS011;12423;48.768;8.850;2024-02-21T10:56:16;5.15;;;1.58;;
24305;SDS011;12423;48.768;8.850;2024-02-21T10:58:44;3.50;;;1.35;;
24305;SDS011;12423;48.768;8.850;2024-02-21T11:01:14;3.83;;;1.17;;
24305;SDS011;12423;48.768;8.850;2024-02-21T11:03:42;3.05;;;1.20;;
24305;SDS011;12423;48.768;8.850;2024-02-21T11:06:10;3.03;;;1.00;;
24305;SDS011;12423;48.768;8.850;2024-02-21T11:08:38;5.75;;;1.58;;
24305;SDS011;12423;48.768;8.850;2024-02-21T11:11:06;4.35;;;1.67;;
24305;SDS011;12423;48.768;8.850;2024-02-21T11:13:37;6.40;;;1.13;;
24305;SDS011;12423;48.768;8.850;2024-02-21T11:16:06;3.22;;;0.95;;
24305;SDS011;12423;48.768;8.850;2024-02-21T11:18:35;2.75;;;1.00;;
24305;SDS011;12423;48.768;8.850;2024-02-21T11:21:03;4.07;;;1.00;;
24305;SDS011;12423;48.768;8.850;2024-02-21T11:23:31;4.78;;;1.15;;
24305;SDS011;12423;48.768;8.850;2024-02-21T11:26:05;4.63;;;1.20;;
24305;SDS011;12423;48.768;8.850;2024-02-21T11:28:33;2.90;;;1.02;;
24305;SDS011;12423;48.768;8.850;2024-02-21T11:31:09;3.20;;;0.90;;
24305;SDS011;12423;48.768;8.850;2024-02-21T11:33:40;3.65;;;0.90;;
24305;SDS011;12423;48.768;8.850;2024-02-21T11:36:08;3.53;;;0.90;;
24305;SDS011;12423;48.768;8.850;2024-02-21T11:38:36;2.80;;;1.15;;
24305;SDS011;12423;48.768;8.850;2024-02-21T11:41:03;5.50;;;1.10;;
24305;SDS011;12423;48.768;8.850;2024-02-21T11:43:36;2.47;;;0.80;;
24305;SDS011;12423;48.768;8.850;2024-02-21T11:46:03;4.13;;;1.50;;
24305;SDS011;12423;48.768;8.850;2024-02-21T11:48:31;3.30;;;1.10;;
24305;SDS011;12423;48.768;8.850;2024-02-21T11:51:00;2.35;;;0.98;;
24305;SDS011;12423;48.768;8.850;2024-02-21T11:53:29;5.35;;;1.08;;
24305;SDS011;12423;48.768;8.850;2024-02-21T11:56:01;5.63;;;0.95;;
24305;SDS011;12423;48.768;8.850;2024-02-21T11:58:29;3.22;;;1.15;;
24305;SDS011;12423;48.768;8.850;2024-02-21T12:00:57;5.25;;;0.93;;
24305;SDS011;12423;48.768;8.850;2024-02-21T12:03:24;2.95;;;1.00;;
24305;SDS011;12423;48.768;8.850;2024-02-21T12:05:52;3.78;;;1.05;;
24305;SDS011;12423;48.768;8.850;2024-02-21T12:08:24;4.22;;;1.00;;
24305;SDS011;12423;48.768;8.850;2024-02-21T12:10:52;2.92;;;0.93;;
24305;SDS011;12423;48.768;8.850;2024-02-21T12:13:22;4.00;;;1.55;;
24305;SDS011;12423;48.768;8.850;2024-02-21T12:15:50;4.68;;;1.30;;
24305;SDS011;12423;48.768;8.850;2024-02-21T12:18:17;4.20;;;1.05;;
24305;SDS011;12423;48.768;8.850;2024-02-21T12:20:47;2.03;;;0.80;;
24305;SDS011;12423;48.768;8.850;2024-02-21T12:23:15;2.35;;;0.80;;
24305;SDS011;12423;48.768;8.850;2024-02-21T12:25:48;2.35;;;0.77;;
24305;SDS011;12423;48.768;8.850;2024-02-21T12:28:15;2.10;;;0.70;;
24305;SDS011;12423;48.768;8.850;2024-02-21T12:30:43;2.92;;;0.77;;
24305;SDS011;12423;48.768;8.850;2024-02-21T12:33:11;1.70;;;0.50;;
24305;SDS011;12423;48.768;8.850;2024-02-21T12:35:40;2.42;;;0.88;;
24305;SDS011;12423;48.768;8.850;2024-02-21T12:38:08;2.40;;;0.82;;
24305;SDS011;12423;48.768;8.850;2024-02-21T12:40:36;1.20;;;0.50;;
24305;SDS011;12423;48.768;8.850;2024-02-21T12:43:04;3.22;;;0.60;;
24305;SDS011;12423;48.768;8.850;2024-02-21T12:45:32;2.10;;;0.90;;
24305;SDS011;12423;48.768;8.850;2024-02-21T12:52:56;4.20;;;0.50;;
24305;SDS011;12423;48.768;8.850;2024-02-21T12:55:24;1.05;;;0.40;;
24305;SDS011;12423;48.768;8.850;2024-02-21T12:57:52;3.53;;;1.10;;
24305;SDS011;12423;48.768;8.850;2024-02-21T13:00:21;4.75;;;1.02;;
24305;SDS011;12423;48.768;8.850;2024-02-21T13:02:52;1.08;;;0.40;;
24305;SDS011;12423;48.768;8.850;2024-02-21T13:05:20;1.35;;;0.57;;
24305;SDS011;12423;48.768;8.850;2024-02-21T13:07:48;1.52;;;0.50;;
24305;SDS011;12423;48.768;8.850;2024-02-21T13:10:16;2.05;;;0.70;;
24305;SDS011;12423;48.768;8.850;2024-02-21T13:12:44;2.35;;;0.60;;
24305;SDS011;12423;48.768;8.850;2024-02-21T13:15:12;1.70;;;0.63;;
24305;SDS011;12423;48.768;8.850;2024-02-21T13:17:41;2.95;;;0.60;;
24305;SDS011;12423;48.768;8.850;2024-02-21T13:20:09;2.85;;;0.57;;
24305;SDS011;12423;48.768;8.850;2024-02-21T13:22:37;1.88;;;0.50;;
24305;SDS011;12423;48.768;8.850;2024-02-21T13:25:05;1.98;;;0.60;;
24305;SDS011;12423;48.768;8.850;2024-02-21T13:27:33;2.92;;;0.80;;
24305;SDS011;12423;48.768;8.850;2024-02-21T13:30:01;1.00;;;0.50;;
24305;SDS011;12423;48.768;8.850;2024-02-21T13:32:32;2.85;;;0.70;;
24305;SDS011;12423;48.768;8.850;2024-02-21T13:35:01;2.55;;;0.60;;
24305;SDS011;12423;48.768;8.850;2024-02-21T13:37:29;1.60;;;0.63;;
24305;SDS011;12423;48.768;8.850;2024-02-21T13:39:57;2.53;;;0.73;;
24305;SDS011;12423;48.768;8.850;2024-02-21T13:42:24;1.20;;;0.50;;
24305;SDS011;12423;48.768;8.850;2024-02-21T13:44:54;3.10;;;0.60;;
24305;SDS011;12423;48.768;8.850;2024-02-21T13:47:21;1.63;;;0.60;;
24305;SDS011;12423;48.768;8.850;2024-02-21T13:49:49;2.58;;;0.77;;
24305;SDS011;12423;48.768;8.850;2024-02-21T13:52:17;4.18;;;0.70;;
24305;SDS011;12423;48.768;8.850;2024-02-21T13:54:47;2.17;;;0.63;;
24305;SDS011;12423;48.768;8.850;2024-02-21T13:57:14;0.93;;;0.43;;
24305;SDS011;12423;48.768;8.850;2024-02-21T13:59:42;3.13;;;0.60;;
24305;SDS011;12423;48.768;8.850;2024-02-21T14:02:10;3.30;;;0.95;;
24305;SDS011;12423;48.768;8.850;2024-02-21T14:04:38;2.70;;;0.70;;
24305;SDS011;12423;48.768;8.850;2024-02-21T14:07:05;1.63;;;0.70;;
24305;SDS011;12423;48.768;8.850;2024-02-21T14:09:35;1.33;;;0.60;;
24305;SDS011;12423;48.768;8.850;2024-02-21T14:12:03;0.90;;;0.50;;
24305;SDS011;12423;48.768;8.850;2024-02-21T14:14:34;1.40;;;0.50;;
24305;SDS011;12423;48.768;8.850;2024-02-21T14:17:05;1.45;;;0.50;;
24305;SDS011;12423;48.768;8.850;2024-02-21T14:19:32;1.90;;;0.82;;
24305;SDS011;12423;48.768;8.850;2024-02-21T14:22:00;2.55;;;0.63;;
24305;SDS011;12423;48.768;8.850;2024-02-21T14:24:28;2.08;;;0.70;;
24305;SDS011;12423;48.768;8.850;2024-02-21T14:26:57;1.98;;;0.98;;
24305;SDS011;12423;48.768;8.850;2024-02-21T14:29:26;2.55;;;1.20;;
24305;SDS011;12423;48.768;8.850;2024-02-21T14:31:53;3.95;;;1.48;;
24305;SDS011;12423;48.768;8.850;2024-02-21T14:34:21;3.40;;;0.70;;
24305;SDS011;12423;48.768;8.850;2024-02-21T14:36:48;1.67;;;0.70;;
24305;SDS011;12423;48.768;8.850;2024-02-21T14:39:16;1.05;;;0.50;;
24305;SDS011;12423;48.768;8.850;2024-02-21T14:41:43;3.35;;;0.73;;
24305;SDS011;12423;48.768;8.850;2024-02-21T14:44:12;1.45;;;0.65;;
24305;SDS011;12423;48.768;8.850;2024-02-21T14:46:40;2.30;;;0.70;;
24305;SDS011;12423;48.768;8.850;2024-02-21T14:49:08;2.35;;;0.80;;
24305;SDS011;12423;48.768;8.850;2024-02-21T14:51:35;1.88;;;0.70;;
24305;SDS011;12423;48.768;8.850;2024-02-21T14:54:07;0.95;;;0.43;;
24305;SDS011;12423;48.768;8.850;2024-02-21T14:56:35;4.97;;;0.60;;
24305;SDS011;12423;48.768;8.850;2024-02-21T14:59:03;3.22;;;1.38;;
24305;SDS011;12423;48.768;8.850;2024-02-21T15:01:44;2.97;;;0.93;;